Time;durP1;ratioP1;P1;durP2;ratioP2;P2;SDS_P1;SDS_P2;PMS_P1;PMS_P2;Temp;Humidity;BMP_temperature;BMP_pressure;BME280_temperature;BME280_humidity;BME280_pressure;Samples;Min_cycle;Max_cycle;Signal;HPM_P1;HPM_P2
2021/01/15 00:01:04;;;;;;;26.30;14.02;;;;;;;;;;5072578;28;20021;-79
2021/01/15 00:03:32;;;;;;;16.38;9.57;;;;;;;;;;5074136;28;20024;-79
2021/01/15 00:05:58;;;;;;;23.25;12.40;;;;;;;;;;5072441;28;20016;-80
2021/01/15 00:08:24;;;;;;;16.48;8.82;;;;;;;;;;5072678;28;20017;-80
2021/01/15 00:10:50;;;;;;;13.75;8.40;;;;;;;;;;5072588;28;20369;-80
2021/01/15 00:13:16;;;;;;;36.38;17.63;;;;;;;;;;5072192;28;20028;-79
2021/01/15 00:15:42;;;;;;;14.82;9.27;;;;;;;;;;5072532;28;20029;-80
2021/01/15 00:18:08;;;;;;;17.23;8.93;;;;;;;;;;5072225;28;20020;-80
2021/01/15 00:20:34;;;;;;;14.02;7.43;;;;;;;;;;5072534;28;20031;-80
2021/01/15 00:23:00;;;;;;;14.10;8.50;;;;;;;;;;5072077;28;20078;-80
2021/01/15 00:25:26;;;;;;;14.57;7.78;;;;;;;;;;5073714;28;20025;-80
2021/01/15 00:27:52;;;;;;;13.13;7.75;;;;;;;;;;5072340;28;20020;-80
2021/01/15 00:30:18;;;;;;;15.10;8.00;;;;;;;;;;5072004;28;20013;-80
2021/01/15 00:32:45;;;;;;;12.13;7.60;;;;;;;;;;5072082;28;20081;-79
2021/01/15 00:35:11;;;;;;;19.70;7.75;;;;;;;;;;5071814;28;20027;-80
2021/01/15 00:37:40;;;;;;;12.20;6.28;;;;;;;;;;5072028;28;20074;-81
2021/01/15 00:40:06;;;;;;;14.45;7.93;;;;;;;;;;5073135;28;20713;-79
2021/01/15 00:42:33;;;;;;;15.40;8.18;;;;;;;;;;5071698;28;20040;-79
2021/01/15 00:44:59;;;;;;;14.55;8.38;;;;;;;;;;5071621;28;20103;-79
2021/01/15 00:47:25;;;;;;;11.10;7.07;;;;;;;;;;5071641;28;20023;-79
2021/01/15 00:49:51;;;;;;;10.13;5.97;;;;;;;;;;5073074;28;20077;-79
2021/01/15 00:52:17;;;;;;;11.15;6.97;;;;;;;;;;5071216;28;20469;-80
2021/01/15 00:54:43;;;;;;;13.00;7.50;;;;;;;;;;5056744;28;20099;-80
2021/01/15 00:57:09;;;;;;;12.25;7.15;;;;;;;;;;5052906;28;20471;-80
2021/01/15 00:59:36;;;;;;;13.55;7.93;;;;;;;;;;5052811;28;20492;-80
2021/01/15 01:02:02;;;;;;;14.27;7.50;;;;;;;;;;5051447;28;20342;-80
2021/01/15 01:04:28;;;;;;;8.45;3.95;;;;;;;;;;5051720;28;20342;-80
2021/01/15 01:06:54;;;;;;;15.88;8.10;;;;;;;;;;5052892;28;20025;-80
2021/01/15 01:09:20;;;;;;;17.00;8.00;;;;;;;;;;5051991;28;20052;-80
2021/01/15 01:11:46;;;;;;;13.35;6.40;;;;;;;;;;5051477;28;20393;-80
2021/01/15 01:14:12;;;;;;;12.13;7.45;;;;;;;;;;5051145;28;20055;-80
2021/01/15 01:16:38;;;;;;;11.63;6.85;;;;;;;;;;5051461;28;20024;-79
2021/01/15 01:19:04;;;;;;;12.65;6.68;;;;;;;;;;5051230;28;20017;-80
2021/01/15 01:21:32;;;;;;;12.60;6.90;;;;;;;;;;5051445;28;20017;-81
2021/01/15 01:23:58;;;;;;;13.48;7.25;;;;;;;;;;5051385;28;20056;-80
2021/01/15 01:26:24;;;;;;;10.07;5.07;;;;;;;;;;5052445;28;20017;-81
2021/01/15 01:28:50;;;;;;;10.27;6.63;;;;;;;;;;5051313;28;20021;-81
2021/01/15 01:31:17;;;;;;;11.85;6.82;;;;;;;;;;5050982;28;20027;-80
2021/01/15 01:33:44;;;;;;;13.50;7.22;;;;;;;;;;5051103;28;20075;-80
2021/01/15 01:36:10;;;;;;;14.52;8.65;;;;;;;;;;5050946;28;20017;-80
2021/01/15 01:38:37;;;;;;;12.93;6.68;;;;;;;;;;5051116;28;20031;-80
2021/01/15 01:41:03;;;;;;;10.55;5.90;;;;;;;;;;5050895;28;20021;-80
2021/01/15 01:43:29;;;;;;;14.10;7.97;;;;;;;;;;5050791;28;20045;-79
2021/01/15 01:45:58;;;;;;;12.18;6.93;;;;;;;;;;5052337;28;20128;-80
2021/01/15 01:48:24;;;;;;;13.82;7.22;;;;;;;;;;5051803;28;20079;-80
2021/01/15 01:50:53;;;;;;;14.25;8.18;;;;;;;;;;5052599;28;20013;-80
2021/01/15 01:53:21;;;;;;;12.93;7.47;;;;;;;;;;5055192;28;20099;-80
2021/01/15 01:55:48;;;;;;;11.80;6.85;;;;;;;;;;5072442;28;20086;-80
2021/01/15 01:58:16;;;;;;;14.10;7.47;;;;;;;;;;5070911;28;20013;-80
2021/01/15 02:00:43;;;;;;;12.10;7.82;;;;;;;;;;5070989;28;20024;-80
2021/01/15 02:03:09;;;;;;;10.18;6.00;;;;;;;;;;5070704;28;20017;-80
2021/01/15 02:05:35;;;;;;;13.80;8.38;;;;;;;;;;5070851;28;20047;-79
2021/01/15 02:08:01;;;;;;;13.27;8.27;;;;;;;;;;5070614;28;20471;-79
2021/01/15 02:10:40;;;;;;;14.25;8.15;;;;;;;;;;5070609;28;20449;-79
2021/01/15 02:13:21;;;;;;;19.77;8.05;;;;;;;;;;5070335;28;20538;-79
2021/01/15 02:15:50;;;;;;;12.32;5.47;;;;;;;;;;5070860;28;20024;-79
2021/01/15 02:18:20;;;;;;;12.93;7.22;;;;;;;;;;5070532;28;20025;-79
2021/01/15 02:20:55;;;;;;;13.30;8.63;;;;;;;;;;5072069;28;20489;-79
2021/01/15 02:23:21;;;;;;;13.95;8.55;;;;;;;;;;5075700;28;20020;-79
2021/01/15 02:25:59;;;;;;;12.82;7.63;;;;;;;;;;5074732;28;20020;-80
2021/01/15 02:28:46;;;;;;;16.20;8.43;;;;;;;;;;5074393;28;20050;-79
2021/01/15 02:31:30;;;;;;;12.73;7.88;;;;;;;;;;5075461;28;20027;-79
2021/01/15 02:34:15;;;;;;;12.50;7.70;;;;;;;;;;5074364;28;20024;-79
2021/01/15 02:36:42;;;;;;;13.00;6.95;;;;;;;;;;5075420;28;20480;-80
2021/01/15 02:39:09;;;;;;;11.68;7.32;;;;;;;;;;5074103;28;20098;-79
2021/01/15 02:41:35;;;;;;;14.20;7.32;;;;;;;;;;5073762;28;20461;-80
2021/01/15 02:44:03;;;;;;;10.98;6.60;;;;;;;;;;5075360;28;20048;-80
2021/01/15 02:46:48;;;;;;;15.15;8.15;;;;;;;;;;5074001;28;20457;-80
2021/01/15 02:49:14;;;;;;;12.20;7.32;;;;;;;;;;5073870;28;20481;-81
2021/01/15 02:51:41;;;;;;;13.80;7.78;;;;;;;;;;5074127;28;20016;-80
2021/01/15 02:54:08;;;;;;;12.75;7.68;;;;;;;;;;5062465;28;20464;-79
2021/01/15 02:56:34;;;;;;;13.95;8.70;;;;;;;;;;5055734;28;20103;-80
2021/01/15 02:59:00;;;;;;;14.80;9.45;;;;;;;;;;5055610;28;20056;-80
2021/01/15 03:01:28;;;;;;;13.82;8.20;;;;;;;;;;5053751;28;20675;-80
2021/01/15 03:04:01;;;;;;;12.93;8.57;;;;;;;;;;5054961;28;20032;-80
2021/01/15 03:06:34;;;;;;;9.98;5.32;;;;;;;;;;5053676;28;20025;-80
2021/01/15 03:09:01;;;;;;;11.43;7.63;;;;;;;;;;5053862;28;20472;-80
2021/01/15 03:11:27;;;;;;;12.98;7.05;;;;;;;;;;5053547;28;20123;-79
2021/01/15 03:13:54;;;;;;;15.30;10.63;;;;;;;;;;5053652;28;20047;-80
2021/01/15 03:16:20;;;;;;;15.07;9.27;;;;;;;;;;5053539;28;20029;-79
2021/01/15 03:18:46;;;;;;;17.08;8.73;;;;;;;;;;5053385;28;20056;-79
2021/01/15 03:21:12;;;;;;;10.95;6.18;;;;;;;;;;5053394;28;20039;-79
2021/01/15 03:23:38;;;;;;;15.48;7.25;;;;;;;;;;5053506;28;20021;-80
2021/01/15 03:26:05;;;;;;;9.00;4.10;;;;;;;;;;5053432;28;20016;-79
2021/01/15 03:28:31;;;;;;;15.77;8.63;;;;;;;;;;5053270;28;20017;-79
2021/01/15 03:30:57;;;;;;;18.17;9.70;;;;;;;;;;5053358;28;20025;-79
2021/01/15 03:33:23;;;;;;;14.15;9.05;;;;;;;;;;5053713;28;20365;-80
2021/01/15 03:35:49;;;;;;;14.90;7.72;;;;;;;;;;5053307;28;20458;-80
2021/01/15 03:38:15;;;;;;;16.30;10.10;;;;;;;;;;5054263;28;20028;-79
2021/01/15 03:40:45;;;;;;;14.50;7.75;;;;;;;;;;5053308;28;20017;-79
2021/01/15 03:43:11;;;;;;;16.70;10.07;;;;;;;;;;5054241;28;20059;-80
2021/01/15 03:45:37;;;;;;;19.55;9.70;;;;;;;;;;5054522;28;20028;-79
2021/01/15 03:48:03;;;;;;;18.65;10.15;;;;;;;;;;5053070;28;20021;-80
2021/01/15 03:50:29;;;;;;;15.27;8.98;;;;;;;;;;5052665;28;20120;-79
2021/01/15 03:52:55;;;;;;;14.23;8.13;;;;;;;;;;5054139;28;20096;-79
2021/01/15 03:55:21;;;;;;;19.00;10.68;;;;;;;;;;5074283;28;20453;-80
2021/01/15 03:57:47;;;;;;;16.27;7.97;;;;;;;;;;5072909;28;20571;-80
2021/01/15 04:00:13;;;;;;;20.20;9.98;;;;;;;;;;5072627;28;20021;-80
2021/01/15 04:02:39;;;;;;;10.48;5.93;;;;;;;;;;5073789;28;20414;-79
2021/01/15 04:05:09;;;;;;;14.32;7.60;;;;;;;;;;5072796;28;20021;-80
2021/01/15 04:07:35;;;;;;;16.52;10.00;;;;;;;;;;5072798;28;20134;-79
2021/01/15 04:10:01;;;;;;;21.20;11.93;;;;;;;;;;5073989;28;20008;-79
2021/01/15 04:12:30;;;;;;;15.90;10.43;;;;;;;;;;5073360;28;20024;-80
2021/01/15 04:14:56;;;;;;;19.08;10.40;;;;;;;;;;5072657;28;20020;-80
2021/01/15 04:17:25;;;;;;;18.02;10.48;;;;;;;;;;5072279;28;20031;-81
2021/01/15 04:19:51;;;;;;;21.83;10.73;;;;;;;;;;5073673;28;20016;-79
2021/01/15 04:22:17;;;;;;;21.45;11.02;;;;;;;;;;5072135;28;20048;-79
2021/01/15 04:24:43;;;;;;;15.15;7.90;;;;;;;;;;5072305;28;20043;-79
2021/01/15 04:27:09;;;;;;;18.90;9.93;;;;;;;;;;5073590;28;20045;-79
2021/01/15 04:29:36;;;;;;;15.43;10.05;;;;;;;;;;5072067;28;20047;-79
2021/01/15 04:32:02;;;;;;;16.58;11.25;;;;;;;;;;5072211;28;20012;-79
2021/01/15 04:34:28;;;;;;;19.48;12.32;;;;;;;;;;5071877;28;20029;-80
2021/01/15 04:36:54;;;;;;;16.52;10.20;;;;;;;;;;5072174;28;20074;-80
2021/01/15 04:39:20;;;;;;;19.27;11.00;;;;;;;;;;5071928;28;20017;-80
2021/01/15 04:41:51;;;;;;;14.50;9.02;;;;;;;;;;5071706;28;20017;-79
2021/01/15 04:44:17;;;;;;;17.27;10.10;;;;;;;;;;5070877;28;20054;-79
2021/01/15 04:46:45;;;;;;;14.60;8.57;;;;;;;;;;5071910;28;20031;-80
2021/01/15 04:49:12;;;;;;;18.42;11.30;;;;;;;;;;5071907;28;20017;-80
2021/01/15 04:51:39;;;;;;;17.77;10.38;;;;;;;;;;5071652;28;20031;-79
2021/01/15 04:54:11;;;;;;;19.65;11.27;;;;;;;;;;5060678;28;20096;-80
2021/01/15 04:56:37;;;;;;;19.52;11.73;;;;;;;;;;5051611;28;20051;-80
2021/01/15 04:59:04;;;;;;;17.40;9.27;;;;;;;;;;5052856;28;20449;-80
2021/01/15 05:01:40;;;;;;;17.30;9.68;;;;;;;;;;5051477;28;20020;-80
2021/01/15 05:04:13;;;;;;;12.80;6.97;;;;;;;;;;5051601;28;20385;-79
2021/01/15 05:06:50;;;;;;;16.85;8.40;;;;;;;;;;5051598;28;20154;-79
2021/01/15 05:09:21;;;;;;;15.27;8.07;;;;;;;;;;5052644;28;20116;-79
2021/01/15 05:11:47;;;;;;;13.00;6.88;;;;;;;;;;5051466;28;20035;-80
2021/01/15 05:14:14;;;;;;;14.32;7.38;;;;;;;;;;5051374;28;20096;-80
2021/01/15 05:16:41;;;;;;;15.32;7.75;;;;;;;;;;5051425;28;20436;-80
2021/01/15 05:19:08;;;;;;;19.48;10.75;;;;;;;;;;5051358;28;20044;-79
2021/01/15 05:21:35;;;;;;;10.95;5.88;;;;;;;;;;5051175;28;20025;-79
2021/01/15 05:24:02;;;;;;;16.45;9.57;;;;;;;;;;5051358;28;20021;-80
2021/01/15 05:26:28;;;;;;;15.93;9.15;;;;;;;;;;5051067;28;20357;-80
2021/01/15 05:28:54;;;;;;;18.00;10.02;;;;;;;;;;5051302;28;20141;-79
2021/01/15 05:31:21;;;;;;;16.08;9.23;;;;;;;;;;5050980;28;20050;-80
2021/01/15 05:33:57;;;;;;;18.75;11.63;;;;;;;;;;5052395;28;20089;-79
2021/01/15 05:36:29;;;;;;;11.68;6.57;;;;;;;;;;5050904;28;20032;-80
2021/01/15 05:39:08;;;;;;;23.58;13.27;;;;;;;;;;5051145;28;20522;-79
2021/01/15 05:41:34;;;;;;;12.80;5.95;;;;;;;;;;5051821;28;20021;-79
2021/01/15 05:44:01;;;;;;;14.18;8.00;;;;;;;;;;5051102;28;20021;-80
2021/01/15 05:46:27;;;;;;;11.20;4.55;;;;;;;;;;5052120;28;20078;-79
2021/01/15 05:48:54;;;;;;;18.80;8.38;;;;;;;;;;5050978;28;20023;-80
2021/01/15 05:51:30;;;;;;;19.17;9.60;;;;;;;;;;5050695;28;20017;-81
2021/01/15 05:53:57;;;;;;;17.30;10.45;;;;;;;;;;5052125;28;20055;-79
2021/01/15 05:56:23;;;;;;;19.13;11.45;;;;;;;;;;5055233;28;20111;-79
2021/01/15 05:59:03;;;;;;;17.80;10.55;;;;;;;;;;5058984;28;20013;-80
2021/01/15 06:01:42;;;;;;;18.17;9.90;;;;;;;;;;5057236;28;20021;-80
2021/01/15 06:04:09;;;;;;;10.67;4.73;;;;;;;;;;5057534;28;20020;-80
2021/01/15 06:06:36;;;;;;;14.60;7.95;;;;;;;;;;5057302;28;20021;-79
2021/01/15 06:09:04;;;;;;;12.40;5.65;;;;;;;;;;5058883;28;20024;-80
2021/01/15 06:11:30;;;;;;;18.38;11.02;;;;;;;;;;5057108;28;20021;-80
2021/01/15 06:13:56;;;;;;;22.40;11.45;;;;;;;;;;5057328;28;20032;-80
2021/01/15 06:16:22;;;;;;;20.50;11.10;;;;;;;;;;5057101;28;20024;-80
2021/01/15 06:19:03;;;;;;;14.20;6.82;;;;;;;;;;5057369;28;20096;-80
2021/01/15 06:21:31;;;;;;;20.30;10.43;;;;;;;;;;5058046;28;20017;-80
2021/01/15 06:23:59;;;;;;;16.08;9.15;;;;;;;;;;5057284;28;20029;-80
2021/01/15 06:26:35;;;;;;;19.38;10.13;;;;;;;;;;5071778;28;20016;-80
2021/01/15 06:29:04;;;;;;;18.10;11.13;;;;;;;;;;5077280;28;20522;-80
2021/01/15 06:31:31;;;;;;;15.13;8.40;;;;;;;;;;5076884;28;20020;-80
2021/01/15 06:34:01;;;;;;;11.70;5.30;;;;;;;;;;5077167;28;20063;-79
2021/01/15 06:36:44;;;;;;;20.65;10.98;;;;;;;;;;5076713;28;20070;-80
2021/01/15 06:39:10;;;;;;;16.33;7.80;;;;;;;;;;5077236;28;20025;-80
2021/01/15 06:41:41;;;;;;;14.90;6.72;;;;;;;;;;5077756;28;20033;-80
2021/01/15 06:44:07;;;;;;;;;;;;;;;;;;5077664;28;20432;-79
2021/01/15 06:46:34;;;;;;;13.73;6.88;;;;;;;;;;5076845;28;19937;-80
2021/01/15 06:49:05;;;;;;;15.27;9.40;;;;;;;;;;5076976;28;20025;-80
2021/01/15 06:51:35;;;;;;;15.70;8.10;;;;;;;;;;5077890;28;20357;-80
2021/01/15 06:54:06;;;;;;;19.98;11.65;;;;;;;;;;5067684;28;20013;-79
2021/01/15 06:56:38;;;;;;;26.38;15.07;;;;;;;;;;5058345;28;20020;-80
2021/01/15 06:59:11;;;;;;;22.00;11.55;;;;;;;;;;5058257;28;20013;-80
2021/01/15 07:01:40;;;;;;;30.13;15.30;;;;;;;;;;5056701;28;20021;-81
2021/01/15 07:04:17;;;;;;;24.20;13.75;;;;;;;;;;5056973;28;20163;-79
2021/01/15 07:06:49;;;;;;;22.73;10.27;;;;;;;;;;5055480;28;20024;-79
2021/01/15 07:09:15;;;;;;;25.75;12.82;;;;;;;;;;5053685;28;20159;-80
2021/01/15 07:11:42;;;;;;;8.80;4.32;;;;;;;;;;5054835;28;20032;-80
2021/01/15 07:14:08;;;;;;;26.63;12.90;;;;;;;;;;5053752;28;20051;-80
2021/01/15 07:16:36;;;;;;;29.23;13.73;;;;;;;;;;5053426;28;20042;-80
2021/01/15 07:19:06;;;;;;;19.27;8.60;;;;;;;;;;5053680;28;20028;-79
2021/01/15 07:21:36;;;;;;;24.80;14.52;;;;;;;;;;5053441;28;20040;-79
2021/01/15 07:24:08;;;;;;;26.02;16.15;;;;;;;;;;5053613;28;20139;-78
2021/01/15 07:26:39;;;;;;;24.58;12.65;;;;;;;;;;5055130;28;20021;-81
2021/01/15 07:29:06;;;;;;;24.77;14.95;;;;;;;;;;5053518;28;20017;-80
2021/01/15 07:31:32;;;;;;;24.75;14.18;;;;;;;;;;5052982;28;20025;-80
2021/01/15 07:33:59;;;;;;;24.88;12.98;;;;;;;;;;5053183;28;20024;-80
2021/01/15 07:36:35;;;;;;;29.10;16.65;;;;;;;;;;5052935;28;20458;-80
2021/01/15 07:39:05;;;;;;;26.67;14.07;;;;;;;;;;5052995;28;20024;-80
2021/01/15 07:41:39;;;;;;;26.80;14.82;;;;;;;;;;5052464;28;20115;-79
2021/01/15 07:44:23;;;;;;;35.72;15.52;;;;;;;;;;5052979;28;20029;-80
2021/01/15 07:46:53;;;;;;;30.35;16.13;;;;;;;;;;5054316;28;20077;-79
2021/01/15 07:49:19;;;;;;;26.42;15.20;;;;;;;;;;5054596;28;20445;-80
2021/01/15 07:52:04;;;;;;;27.83;16.40;;;;;;;;;;5052829;28;20012;-80
2021/01/15 07:54:57;;;;;;;28.52;14.52;;;;;;;;;;5053852;28;20029;-80
2021/01/15 07:57:23;;;;;;;16.25;7.70;;;;;;;;;;5052865;28;20024;-80
2021/01/15 07:59:49;;;;;;;25.17;14.88;;;;;;;;;;5052922;28;20075;-80
2021/01/15 08:02:16;;;;;;;28.15;15.20;;;;;;;;;;5052812;28;20017;-79
2021/01/15 08:04:42;;;;;;;31.75;16.10;;;;;;;;;;5052239;28;20024;-80
2021/01/15 08:07:11;;;;;;;30.70;15.52;;;;;;;;;;5053814;28;20060;-80
2021/01/15 08:09:40;;;;;;;29.90;15.60;;;;;;;;;;5052259;28;20025;-79
2021/01/15 08:12:07;;;;;;;18.52;10.07;;;;;;;;;;5052749;28;20032;-79
2021/01/15 08:14:33;;;;;;;27.58;16.90;;;;;;;;;;5053600;28;20033;-80
2021/01/15 08:16:59;;;;;;;23.67;14.50;;;;;;;;;;5057855;28;20040;-80
2021/01/15 08:19:25;;;;;;;25.10;15.98;;;;;;;;;;5069524;28;20020;-79
2021/01/15 08:21:52;;;;;;;26.20;15.80;;;;;;;;;;5072575;28;20012;-79
2021/01/15 08:24:18;;;;;;;27.20;15.93;;;;;;;;;;5072198;28;20388;-80
2021/01/15 08:26:50;;;;;;;27.95;14.90;;;;;;;;;;5058650;28;20111;-80
2021/01/15 08:29:17;;;;;;;31.40;16.27;;;;;;;;;;5062454;28;20021;-79
2021/01/15 08:31:43;;;;;;;23.52;15.05;;;;;;;;;;5059384;28;20476;-80
2021/01/15 08:34:11;;;;;;;26.40;14.85;;;;;;;;;;5061595;28;20530;-80
2021/01/15 08:36:39;;;;;;;24.65;14.68;;;;;;;;;;5061540;28;20043;-79
2021/01/15 08:39:05;;;;;;;35.20;23.33;;;;;;;;;;5061744;28;20013;-79
2021/01/15 08:41:33;;;;;;;28.88;16.45;;;;;;;;;;5061161;28;20016;-79
2021/01/15 08:43:59;;;;;;;25.05;14.82;;;;;;;;;;5061359;28;20420;-80
2021/01/15 08:46:26;;;;;;;24.10;15.50;;;;;;;;;;5061598;28;20469;-80
2021/01/15 08:48:52;;;;;;;23.88;13.88;;;;;;;;;;5056773;28;20052;-80
2021/01/15 08:51:21;;;;;;;23.40;13.05;;;;;;;;;;5056996;28;20029;-80
2021/01/15 08:54:09;;;;;;;22.38;14.10;;;;;;;;;;5050730;28;20028;-79
2021/01/15 08:56:43;;;;;;;24.83;14.15;;;;;;;;;;5050994;28;20017;-80
2021/01/15 08:59:13;;;;;;;19.20;10.85;;;;;;;;;;5050382;28;20170;-80
2021/01/15 09:01:40;;;;;;;22.75;14.20;;;;;;;;;;5050203;28;20468;-81
2021/01/15 09:04:10;;;;;;;23.98;14.50;;;;;;;;;;5050893;28;20404;-80
2021/01/15 09:06:36;;;;;;;19.85;12.00;;;;;;;;;;5050611;28;20060;-80
2021/01/15 09:09:07;;;;;;;19.60;12.95;;;;;;;;;;5050835;28;20461;-80
2021/01/15 09:11:34;;;;;;;;;;;;;;;;;;5051093;28;20017;-80
2021/01/15 09:14:00;;;;;;;20.75;12.10;;;;;;;;;;5050692;28;19910;-80
2021/01/15 09:16:27;;;;;;;22.88;12.32;;;;;;;;;;5050662;28;20029;-80
2021/01/15 09:18:53;;;;;;;22.33;12.98;;;;;;;;;;5050899;28;20021;-80
2021/01/15 09:21:20;;;;;;;22.75;13.25;;;;;;;;;;5051774;28;20017;-80
2021/01/15 09:23:46;;;;;;;19.92;12.30;;;;;;;;;;5050430;28;20384;-80
2021/01/15 09:26:12;;;;;;;23.13;13.82;;;;;;;;;;5051938;28;20017;-80
2021/01/15 09:28:38;;;;;;;26.15;13.23;;;;;;;;;;5050548;28;20017;-80
2021/01/15 09:31:04;;;;;;;28.88;17.80;;;;;;;;;;5050010;28;20033;-81
2021/01/15 09:33:31;;;;;;;29.58;17.52;;;;;;;;;;5050236;28;20036;-80
2021/01/15 09:35:57;;;;;;;41.60;26.85;;;;;;;;;;5050542;28;20094;-80
2021/01/15 09:38:23;;;;;;;25.45;15.82;;;;;;;;;;5051880;28;20017;-80
2021/01/15 09:40:49;;;;;;;23.05;14.45;;;;;;;;;;5050270;28;20362;-80
2021/01/15 09:43:18;;;;;;;21.30;13.45;;;;;;;;;;5051616;28;20452;-80
2021/01/15 09:45:44;;;;;;;22.98;14.18;;;;;;;;;;5050295;28;20033;-81
2021/01/15 09:48:10;;;;;;;20.77;12.68;;;;;;;;;;5051712;28;20104;-81
2021/01/15 09:50:36;;;;;;;19.75;12.10;;;;;;;;;;5051450;28;20016;-81
2021/01/15 09:53:02;;;;;;;21.90;12.27;;;;;;;;;;5051254;28;20523;-79
2021/01/15 09:55:28;;;;;;;21.13;13.57;;;;;;;;;;5051238;28;20122;-82
2021/01/15 09:57:54;;;;;;;19.42;12.27;;;;;;;;;;5051845;28;20056;-83
2021/01/15 10:00:21;;;;;;;20.35;12.68;;;;;;;;;;5051722;28;20024;-82
2021/01/15 10:02:47;;;;;;;21.23;12.80;;;;;;;;;;5052574;28;20029;-84
2021/01/15 10:05:13;;;;;;;23.35;12.48;;;;;;;;;;5053221;28;20044;-80
2021/01/15 10:07:39;;;;;;;20.63;11.77;;;;;;;;;;5051093;28;20075;-80
2021/01/15 10:10:07;;;;;;;21.02;11.63;;;;;;;;;;5050693;28;20099;-80
2021/01/15 10:12:33;;;;;;;27.58;16.02;;;;;;;;;;5050312;28;20025;-80
2021/01/15 10:14:59;;;;;;;19.63;11.63;;;;;;;;;;5051737;28;20052;-79
2021/01/15 10:17:25;;;;;;;23.25;12.90;;;;;;;;;;5051644;28;20036;-80
2021/01/15 10:19:51;;;;;;;20.90;12.95;;;;;;;;;;5051373;28;20021;-82
2021/01/15 10:22:17;;;;;;;20.88;12.30;;;;;;;;;;5051745;28;20039;-81
2021/01/15 10:24:43;;;;;;;19.73;12.35;;;;;;;;;;5053061;28;20457;-80
2021/01/15 10:27:09;;;;;;;18.10;11.82;;;;;;;;;;5051481;28;20025;-79
2021/01/15 10:29:35;;;;;;;15.60;10.32;;;;;;;;;;5051612;28;20434;-81
2021/01/15 10:32:01;;;;;;;21.25;12.82;;;;;;;;;;5052317;28;20028;-82
2021/01/15 10:34:28;;;;;;;22.27;12.90;;;;;;;;;;5051683;28;20098;-81
2021/01/15 10:36:54;;;;;;;19.75;12.55;;;;;;;;;;5051657;28;20029;-81
2021/01/15 10:39:20;;;;;;;21.08;12.85;;;;;;;;;;5051801;28;20083;-81
2021/01/15 10:41:52;;;;;;;19.92;11.48;;;;;;;;;;5052328;28;20444;-80
2021/01/15 10:44:20;;;;;;;23.13;13.27;;;;;;;;;;5056897;28;20021;-82
2021/01/15 10:46:47;;;;;;;17.73;12.00;;;;;;;;;;5055367;28;20017;-80
2021/01/15 10:49:15;;;;;;;33.28;18.15;;;;;;;;;;5055445;28;20028;-81
2021/01/15 10:51:44;;;;;;;36.20;18.40;;;;;;;;;;5055139;28;20027;-81
2021/01/15 10:54:10;;;;;;;37.67;19.25;;;;;;;;;;5056397;28;20047;-80
2021/01/15 10:56:40;;;;;;;76.53;34.30;;;;;;;;;;5054857;28;20231;-81
2021/01/15 10:59:06;;;;;;;66.28;28.98;;;;;;;;;;5054948;28;20021;-80
2021/01/15 11:01:36;;;;;;;32.92;16.95;;;;;;;;;;5054906;28;20103;-81
2021/01/15 11:04:03;;;;;;;52.70;26.67;;;;;;;;;;5056456;28;20576;-80
2021/01/15 11:06:29;;;;;;;21.23;13.95;;;;;;;;;;5055123;28;20464;-80
2021/01/15 11:08:55;;;;;;;18.98;11.90;;;;;;;;;;5054979;28;20017;-80
2021/01/15 11:11:21;;;;;;;19.23;11.88;;;;;;;;;;5056610;28;20055;-81
2021/01/15 11:13:47;;;;;;;17.67;11.40;;;;;;;;;;5056897;28;20039;-81
2021/01/15 11:16:13;;;;;;;20.58;11.73;;;;;;;;;;5056246;28;20021;-80
2021/01/15 11:18:40;;;;;;;19.27;12.15;;;;;;;;;;5056477;28;20025;-80
2021/01/15 11:21:06;;;;;;;21.77;13.00;;;;;;;;;;5054414;28;20017;-79
2021/01/15 11:23:32;;;;;;;22.45;13.88;;;;;;;;;;5054434;28;20051;-81
2021/01/15 11:25:58;;;;;;;29.45;15.48;;;;;;;;;;5054902;28;20108;-81
2021/01/15 11:28:24;;;;;;;40.55;24.00;;;;;;;;;;5054667;28;20045;-84
2021/01/15 11:30:51;;;;;;;55.58;33.25;;;;;;;;;;5055541;28;20122;-82
2021/01/15 11:33:17;;;;;;;30.13;18.83;;;;;;;;;;5055786;28;20056;-82
2021/01/15 11:35:43;;;;;;;27.13;15.88;;;;;;;;;;5054148;28;20052;-81
2021/01/15 11:38:09;;;;;;;20.50;12.75;;;;;;;;;;5055250;28;20458;-82
2021/01/15 11:40:35;;;;;;;14.18;6.85;;;;;;;;;;5055724;28;20365;-82
2021/01/15 11:43:01;;;;;;;25.42;17.05;;;;;;;;;;5054303;28;20397;-82
2021/01/15 11:45:27;;;;;;;23.65;14.63;;;;;;;;;;5055192;28;20020;-81
2021/01/15 11:47:54;;;;;;;19.17;12.95;;;;;;;;;;5053230;28;20021;-82
2021/01/15 11:50:21;;;;;;;21.55;14.48;;;;;;;;;;5052565;28;20025;-82
2021/01/15 11:52:47;;;;;;;80.72;50.58;;;;;;;;;;5055389;28;20045;-81
2021/01/15 11:55:13;;;;;;;26.75;17.35;;;;;;;;;;5062240;28;20373;-82
2021/01/15 11:57:40;;;;;;;22.63;13.23;;;;;;;;;;5060492;28;20070;-82
2021/01/15 12:00:06;;;;;;;22.10;13.52;;;;;;;;;;5062950;28;20017;-81
2021/01/15 12:02:32;;;;;;;23.13;14.85;;;;;;;;;;5062814;28;20009;-81
2021/01/15 12:04:58;;;;;;;19.60;13.45;;;;;;;;;;5061550;28;20013;-81
2021/01/15 12:07:24;;;;;;;20.98;13.15;;;;;;;;;;5064071;28;20337;-83
2021/01/15 12:09:50;;;;;;;19.63;13.30;;;;;;;;;;5063546;28;20511;-81
2021/01/15 12:12:16;;;;;;;22.13;14.15;;;;;;;;;;5074411;28;20030;-81
2021/01/15 12:14:43;;;;;;;20.83;13.70;;;;;;;;;;5074326;28;20032;-81
2021/01/15 12:17:09;;;;;;;25.23;13.30;;;;;;;;;;5075434;28;20107;-82
2021/01/15 12:19:35;;;;;;;23.73;14.25;;;;;;;;;;5068762;28;20047;-81
2021/01/15 12:22:01;;;;;;;22.85;13.73;;;;;;;;;;5062745;28;20134;-82
2021/01/15 12:24:27;;;;;;;22.90;14.05;;;;;;;;;;5061196;28;20021;-82
2021/01/15 12:26:57;;;;;;;22.23;14.52;;;;;;;;;;5061429;28;20012;-82
2021/01/15 12:29:23;;;;;;;22.10;13.68;;;;;;;;;;5060797;28;20021;-82
2021/01/15 12:31:53;;;;;;;20.17;12.77;;;;;;;;;;5062116;28;20456;-82
2021/01/15 12:34:19;;;;;;;21.15;13.82;;;;;;;;;;5059952;28;20033;-82
2021/01/15 12:36:45;;;;;;;26.00;13.05;;;;;;;;;;5063198;28;20080;-81
2021/01/15 12:39:11;;;;;;;23.20;13.30;;;;;;;;;;5064339;28;20469;-81
2021/01/15 12:41:37;;;;;;;18.80;12.15;;;;;;;;;;5064454;28;20032;-82
2021/01/15 12:44:03;;;;;;;20.42;13.00;;;;;;;;;;5065746;28;20028;-82
2021/01/15 12:46:29;;;;;;;17.92;12.23;;;;;;;;;;5067874;28;20107;-82
2021/01/15 12:48:56;;;;;;;18.77;12.77;;;;;;;;;;5059687;28;20015;-81
2021/01/15 12:51:22;;;;;;;21.33;12.75;;;;;;;;;;5062142;28;20070;-82
2021/01/15 12:53:48;;;;;;;20.13;13.23;;;;;;;;;;5052425;28;20025;-82
2021/01/15 12:56:17;;;;;;;22.48;14.30;;;;;;;;;;5051912;28;20032;-81
2021/01/15 12:58:43;;;;;;;20.77;13.18;;;;;;;;;;5053334;28;20024;-81
2021/01/15 13:01:09;;;;;;;21.73;14.02;;;;;;;;;;5050273;28;20539;-84
2021/01/15 13:03:36;;;;;;;19.70;11.73;;;;;;;;;;5050545;28;20054;-83
2021/01/15 13:06:02;;;;;;;18.23;11.48;;;;;;;;;;5050488;28;20078;-84
2021/01/15 13:08:28;;;;;;;17.83;10.57;;;;;;;;;;5051263;28;20577;-84
2021/01/15 13:10:54;;;;;;;20.13;12.35;;;;;;;;;;5051196;28;20523;-83
2021/01/15 13:13:20;;;;;;;20.02;13.13;;;;;;;;;;5053626;28;20029;-83
2021/01/15 13:15:46;;;;;;;21.27;12.75;;;;;;;;;;5055130;28;20070;-84
2021/01/15 13:18:12;;;;;;;19.73;12.65;;;;;;;;;;5055154;28;20025;-84
2021/01/15 13:20:40;;;;;;;17.58;11.80;;;;;;;;;;5053822;28;20439;-84
2021/01/15 13:23:08;;;;;;;16.38;8.63;;;;;;;;;;5054751;28;20044;-82
2021/01/15 13:25:34;;;;;;;21.75;13.05;;;;;;;;;;5054096;28;20086;-81
2021/01/15 13:28:01;;;;;;;20.10;13.13;;;;;;;;;;5052665;28;20009;-82
2021/01/15 13:30:27;;;;;;;45.25;22.73;;;;;;;;;;5050690;28;20021;-81
2021/01/15 13:32:53;;;;;;;38.05;20.05;;;;;;;;;;5051163;28;20024;-80
2021/01/15 13:35:19;;;;;;;98.15;35.33;;;;;;;;;;5053850;28;20036;-80
2021/01/15 13:37:45;;;;;;;36.00;17.65;;;;;;;;;;5050773;28;20035;-84
2021/01/15 13:40:12;;;;;;;94.97;43.00;;;;;;;;;;5050388;28;20017;-85
2021/01/15 13:42:38;;;;;;;36.47;21.13;;;;;;;;;;5050141;28;20037;-83
2021/01/15 13:45:05;;;;;;;45.08;25.55;;;;;;;;;;5057487;28;20013;-83
2021/01/15 13:47:33;;;;;;;40.30;24.55;;;;;;;;;;5069231;28;20028;-82
2021/01/15 13:49:59;;;;;;;46.90;28.30;;;;;;;;;;5069942;28;20199;-82
2021/01/15 13:52:26;;;;;;;30.75;18.65;;;;;;;;;;5070223;28;20024;-85
2021/01/15 13:54:52;;;;;;;23.77;14.50;;;;;;;;;;5051939;28;20419;-81
2021/01/15 13:57:18;;;;;;;24.45;15.05;;;;;;;;;;5051236;28;20112;-82
2021/01/15 13:59:44;;;;;;;21.75;14.05;;;;;;;;;;5052625;28;20095;-82
2021/01/15 14:02:10;;;;;;;21.30;13.63;;;;;;;;;;5052286;28;20025;-82
2021/01/15 14:04:36;;;;;;;26.75;15.30;;;;;;;;;;5052688;28;20032;-82
2021/01/15 14:07:02;;;;;;;19.13;12.90;;;;;;;;;;5054138;28;20512;-84
2021/01/15 14:09:28;;;;;;;23.85;14.13;;;;;;;;;;5053066;28;20021;-83
2021/01/15 14:11:54;;;;;;;22.88;14.07;;;;;;;;;;5052822;28;20227;-83
2021/01/15 14:14:24;;;;;;;22.77;13.45;;;;;;;;;;5052840;28;20025;-82
2021/01/15 14:16:50;;;;;;;21.70;14.07;;;;;;;;;;5053835;28;20017;-82
2021/01/15 14:19:17;;;;;;;24.75;14.52;;;;;;;;;;5056615;28;20104;-80
2021/01/15 14:21:43;;;;;;;13.20;8.60;;;;;;;;;;5056408;28;20048;-81
2021/01/15 14:24:09;;;;;;;21.30;13.50;;;;;;;;;;5056400;28;20025;-84
2021/01/15 14:26:39;;;;;;;23.20;14.88;;;;;;;;;;5057933;28;20017;-81